Time;durP1;ratioP1;P1;durP2;ratioP2;P2;SDS_P1;SDS_P2;PMS_P1;PMS_P2;Temp;Humidity;BMP_temperature;BMP_pressure;BME280_temperature;BME280_humidity;BME280_pressure;Samples;Min_cycle;Max_cycle;Signal;HPM_P1;HPM_P2
2022/12/04 00:01:14;;;;;;;4.95;4.55;;;;;;;3.87;100.00;62397.25;4949466;29;20435;-79
2022/12/04 00:03:41;;;;;;;5.30;4.65;;;;;;;3.83;100.00;62395.16;4950409;29;20212;-79
2022/12/04 00:06:10;;;;;;;7.38;4.22;;;;;;;3.79;100.00;62389.03;4947732;29;20225;-78
2022/12/04 00:08:37;;;;;;;5.20;4.20;;;;;;;3.80;100.00;62387.03;4949324;29;20490;-78
2022/12/04 00:11:07;;;;;;;3.63;3.33;;;;;;;3.75;100.00;62377.38;4948300;28;20221;-79
2022/12/04 00:13:34;;;;;;;5.32;4.45;;;;;;;3.65;100.00;62372.13;4949635;29;20201;-78
2022/12/04 00:16:04;;;;;;;4.80;4.40;;;;;;;3.79;100.00;62391.03;4950887;29;20221;-80
2022/12/04 00:18:31;;;;;;;4.82;4.03;;;;;;;3.83;100.00;62390.13;4950963;29;20225;-79
2022/12/04 00:20:58;;;;;;;3.55;3.25;;;;;;;3.86;100.00;62391.19;4950357;29;20526;-79
2022/12/04 00:23:25;;;;;;;4.55;3.90;;;;;;;3.83;100.00;62398.19;4949699;29;20197;-80
2022/12/04 00:25:52;;;;;;;4.03;3.63;;;;;;;3.97;100.00;62407.53;4950520;28;20235;-79
2022/12/04 00:28:19;;;;;;;4.28;3.67;;;;;;;4.03;100.00;62418.25;4949335;29;20273;-79
2022/12/04 00:30:46;;;;;;;3.95;3.45;;;;;;;4.05;100.00;62415.78;4949642;29;20234;-78
2022/12/04 00:33:14;;;;;;;3.97;3.58;;;;;;;4.11;100.00;62416.38;4949601;29;20215;-77
2022/12/04 00:35:42;;;;;;;5.13;3.83;;;;;;;4.18;100.00;62426.63;4948552;29;20229;-79
2022/12/04 00:38:09;;;;;;;5.88;3.38;;;;;;;4.15;100.00;62431.09;4945181;29;20240;-78
2022/12/04 00:40:36;;;;;;;5.50;3.97;;;;;;;4.20;100.00;62428.16;4942953;29;20229;-77
2022/12/04 00:43:03;;;;;;;4.78;3.88;;;;;;;4.20;100.00;62433.72;4947583;29;20205;-79
2022/12/04 00:45:30;;;;;;;3.03;2.80;;;;;;;4.22;100.00;62427.72;4949182;29;20220;-77
2022/12/04 00:47:57;;;;;;;3.25;3.00;;;;;;;4.25;100.00;62435.84;4949053;29;20213;-79
2022/12/04 00:50:25;;;;;;;3.35;3.03;;;;;;;4.29;100.00;62437.44;4948741;29;20343;-78
2022/12/04 00:52:52;;;;;;;4.05;3.67;;;;;;;4.41;100.00;62450.31;4948049;29;20393;-78
2022/12/04 00:55:19;;;;;;;3.42;3.13;;;;;;;4.44;100.00;62453.38;4947635;29;20296;-77
2022/12/04 00:57:46;;;;;;;4.82;2.83;;;;;;;4.41;100.00;62455.34;4946507;29;20249;-77
2022/12/04 01:00:13;;;;;;;4.47;3.42;;;;;;;4.50;100.00;62462.06;4946759;29;20217;-78
2022/12/04 01:02:40;;;;;;;4.03;3.53;;;;;;;4.52;100.00;62466.16;4945103;29;20513;-77
2022/12/04 01:05:08;;;;;;;4.05;3.65;;;;;;;4.57;100.00;62468.78;4947512;29;20205;-77
2022/12/04 01:07:36;;;;;;;3.80;3.28;;;;;;;4.64;100.00;62476.00;4949332;29;20526;-77
2022/12/04 01:10:06;;;;;;;3.97;3.20;;;;;;;4.59;100.00;62468.31;4946354;29;20202;-78
2022/12/04 01:12:33;;;;;;;3.35;3.05;;;;;;;4.64;100.00;62476.50;4948885;29;20428;-78
2022/12/04 01:15:01;;;;;;;2.97;2.78;;;;;;;4.69;100.00;62479.13;4947470;29;20197;-77
2022/12/04 01:17:28;;;;;;;3.22;2.90;;;;;;;4.67;100.00;62477.06;4945454;29;20237;-78
2022/12/04 01:19:55;;;;;;;3.22;2.92;;;;;;;4.65;100.00;62477.53;4935306;29;20224;-76
2022/12/04 01:22:21;;;;;;;3.75;3.45;;;;;;;4.75;100.00;62484.78;4943993;29;20252;-78
2022/12/04 01:24:50;;;;;;;3.08;2.83;;;;;;;4.70;100.00;62479.63;4946904;29;20205;-77
2022/12/04 01:27:17;;;;;;;4.05;3.25;;;;;;;4.78;100.00;62490.38;4946956;29;20252;-77
2022/12/04 01:29:44;;;;;;;3.15;2.88;;;;;;;4.75;100.00;62492.34;4945643;29;20233;-78
2022/12/04 01:32:11;;;;;;;3.42;2.40;;;;;;;4.73;100.00;62487.75;4945746;28;20229;-79
2022/12/04 01:34:37;;;;;;;2.80;2.60;;;;;;;4.76;100.00;62485.31;4946741;29;20228;-78
2022/12/04 01:37:04;;;;;;;3.30;3.00;;;;;;;4.71;100.00;62481.16;4946534;29;20236;-77
2022/12/04 01:39:31;;;;;;;2.75;2.60;;;;;;;4.91;100.00;62508.81;4945433;29;20202;-77
2022/12/04 01:42:00;;;;;;;3.15;2.95;;;;;;;4.76;100.00;62490.88;4946295;29;20221;-78
2022/12/04 01:44:27;;;;;;;3.30;3.00;;;;;;;4.87;100.00;62499.16;4940466;29;20209;-79
2022/12/04 01:46:55;;;;;;;2.42;2.22;;;;;;;4.85;100.00;62494.56;4945987;29;20534;-77
2022/12/04 01:49:26;;;;;;;2.95;2.75;;;;;;;4.89;100.00;62503.72;4944263;28;20209;-78
2022/12/04 01:51:57;;;;;;;3.13;2.83;;;;;;;4.97;100.00;62509.44;4947772;28;20218;-78
2022/12/04 01:54:28;;;;;;;2.70;2.60;;;;;;;4.98;100.00;62510.47;4947899;29;20197;-78
2022/12/04 01:57:03;;;;;;;2.65;2.50;;;;;;;4.98;100.00;62505.94;4944729;29;20233;-77
2022/12/04 01:59:36;;;;;;;2.42;2.22;;;;;;;5.10;100.00;62522.81;4947040;29;20201;-79
2022/12/04 02:02:07;;;;;;;2.55;2.30;;;;;;;5.04;100.00;62512.09;4948074;29;20221;-80
2022/12/04 02:04:35;;;;;;;2.22;2.03;;;;;;;5.09;100.00;62519.78;4944442;29;20233;-78
2022/12/04 02:07:02;;;;;;;2.35;2.22;;;;;;;5.12;100.00;62522.88;4944035;28;20288;-77
2022/12/04 02:09:31;;;;;;;2.35;2.25;;;;;;;5.07;100.00;62520.25;4952374;29;20213;-78
2022/12/04 02:12:08;;;;;;;2.47;2.38;;;;;;;5.06;100.00;62516.19;4947120;29;20245;-78
2022/12/04 02:14:44;;;;;;;2.47;2.28;;;;;;;5.03;100.00;62516.13;4947401;29;20245;-76
2022/12/04 02:17:22;;;;;;;2.13;2.03;;;;;;;5.08;100.00;62521.28;4950979;29;20241;-78
2022/12/04 02:20:13;;;;;;;2.05;1.95;;;;;;;5.08;100.00;62521.28;4947452;29;20204;-79
2022/12/04 02:23:08;;;;;;;2.15;2.00;;;;;;;5.09;100.00;62521.81;4950259;28;20202;-79
2022/12/04 02:25:45;;;;;;;2.42;2.00;;;;;;;4.93;100.00;62508.38;4950848;28;20225;-77
2022/12/04 02:28:22;;;;;;;2.90;2.50;;;;;;;4.89;100.00;62503.72;4949974;29;20205;-77
2022/12/04 02:30:52;;;;;;;2.30;2.10;;;;;;;4.90;100.00;62504.75;4949915;29;20299;-79
2022/12/04 02:33:23;;;;;;;2.15;2.05;;;;;;;4.83;100.00;62495.03;4950577;29;20197;-78
2022/12/04 02:35:55;;;;;;;2.08;1.98;;;;;;;4.81;100.00;62492.97;4950750;29;20399;-78
2022/12/04 02:38:26;;;;;;;2.42;2.22;;;;;;;4.80;100.00;62491.94;4951359;29;20220;-77
2022/12/04 02:40:59;;;;;;;1.80;1.65;;;;;;;4.90;100.00;62500.22;4947966;29;20492;-77
2022/12/04 02:43:33;;;;;;;2.13;2.03;;;;;;;4.90;100.00;62502.25;4948751;29;20400;-78
2022/12/04 02:46:05;;;;;;;2.10;2.00;;;;;;;4.81;100.00;62490.44;4947648;29;20217;-77
2022/12/04 02:48:36;;;;;;;2.00;1.90;;;;;;;4.76;100.00;62490.34;4947537;29;20526;-77
2022/12/04 02:51:07;;;;;;;2.50;2.30;;;;;;;4.73;100.00;62485.25;4948287;28;20237;-77
2022/12/04 02:53:37;;;;;;;2.75;2.03;;;;;;;4.73;100.00;62487.75;4949687;29;20212;-77
2022/12/04 02:56:11;;;;;;;2.30;2.17;;;;;;;4.75;100.00;62487.31;4949015;29;20221;-77
2022/12/04 02:58:44;;;;;;;2.10;2.00;;;;;;;4.76;100.00;62487.81;4946572;29;20244;-78
2022/12/04 03:01:22;;;;;;;2.05;1.95;;;;;;;4.86;100.00;62496.09;4948980;29;20495;-76
2022/12/04 03:03:57;;;;;;;2.65;1.67;;;;;;;4.85;100.00;62495.06;4950057;29;20205;-77
2022/12/04 03:06:27;;;;;;;1.75;1.65;;;;;;;4.96;100.00;62511.44;4950218;29;20225;-82
2022/12/04 03:09:00;;;;;;;2.05;1.95;;;;;;;4.91;100.00;62500.72;4951113;29;20206;-80
2022/12/04 03:11:30;;;;;;;2.25;2.15;;;;;;;4.85;100.00;62497.59;4949364;29;20226;-77
2022/12/04 03:14:05;;;;;;;2.80;2.05;;;;;;;4.85;100.00;62495.06;4950372;28;20205;-78
2022/12/04 03:16:37;;;;;;;2.33;2.22;;;;;;;4.75;100.00;62487.31;4948149;29;20224;-79
2022/12/04 03:19:09;;;;;;;2.25;2.10;;;;;;;4.78;100.00;62490.38;4949456;29;20221;-79
2022/12/04 03:21:40;;;;;;;1.73;1.70;;;;;;;4.80;100.00;62492.44;4951475;29;20221;-81
2022/12/04 03:24:12;;;;;;;2.20;2.00;;;;;;;4.69;100.00;62476.59;4946279;29;20206;-78
2022/12/04 03:26:45;;;;;;;1.92;1.83;;;;;;;4.69;100.00;62478.63;4947862;29;20221;-78
2022/12/04 03:29:18;;;;;;;1.70;1.60;;;;;;;4.73;100.00;62485.25;4946263;29;20230;-77
2022/12/04 03:31:48;;;;;;;2.00;1.90;;;;;;;4.73;100.00;62485.75;4948998;29;20285;-80
2022/12/04 03:34:21;;;;;;;1.83;1.73;;;;;;;4.73;100.00;62488.28;4947620;29;20198;-79
2022/12/04 03:36:51;;;;;;;2.40;2.28;;;;;;;4.67;100.00;62479.59;4948760;29;20232;-78
2022/12/04 03:39:22;;;;;;;1.83;1.73;;;;;;;4.71;100.00;62483.69;4949529;29;20231;-78
2022/12/04 03:41:57;;;;;;;2.20;2.10;;;;;;;4.71;100.00;62478.66;4948650;29;20221;-79
2022/12/04 03:44:32;;;;;;;2.10;2.00;;;;;;;4.67;100.00;62482.13;4946972;28;20394;-78
2022/12/04 03:47:04;;;;;;;2.25;2.05;;;;;;;4.79;100.00;62491.44;4938134;29;20225;-79
2022/12/04 03:49:45;;;;;;;1.88;1.77;;;;;;;4.77;100.00;62486.84;4941382;29;20204;-79
2022/12/04 03:52:19;;;;;;;1.80;1.70;;;;;;;4.80;100.00;62487.41;4949423;28;20423;-79
2022/12/04 03:54:50;;;;;;;1.80;1.70;;;;;;;4.84;100.00;62501.09;4949229;29;20212;-78
2022/12/04 03:57:20;;;;;;;1.60;1.50;;;;;;;4.77;100.00;62486.84;4942956;29;20233;-79
2022/12/04 03:59:53;;;;;;;1.80;1.70;;;;;;;4.64;100.00;62476.00;4946583;29;20209;-77
2022/12/04 04:02:24;;;;;;;2.00;1.90;;;;;;;4.65;100.00;62472.50;4947111;29;20209;-79
2022/12/04 04:04:55;;;;;;;2.22;2.13;;;;;;;4.65;100.00;62477.53;4928873;29;20337;-77
2022/12/04 04:07:27;;;;;;;2.10;2.00;;;;;;;4.60;100.00;62472.38;4943709;29;20308;-78
2022/12/04 04:09:58;;;;;;;1.90;1.80;;;;;;;4.59;100.00;62470.84;4945619;28;20201;-78
2022/12/04 04:12:30;;;;;;;2.25;2.00;;;;;;;4.63;100.00;62474.94;4946325;29;20221;-77
2022/12/04 04:26:11;;;;;;;2.10;2.00;;;;;;;4.71;100.00;62481.16;4949294;29;20256;-79
2022/12/04 04:28:40;;;;;;;1.95;1.85;;;;;;;4.69;100.00;62476.59;4948994;28;20216;-79
2022/12/04 04:31:16;;;;;;;1.88;1.77;;;;;;;4.60;100.00;62469.88;4946675;29;20226;-79
2022/12/04 04:33:51;;;;;;;2.63;2.53;;;;;;;4.54;100.00;62465.69;4948029;29;20201;-79
2022/12/04 04:36:25;;;;;;;2.20;2.10;;;;;;;4.54;100.00;62463.16;4947570;29;20217;-79
2022/12/04 04:39:01;;;;;;;2.08;1.98;;;;;;;4.62;100.00;62478.97;4949344;29;20229;-77
2022/12/04 04:41:38;;;;;;;2.10;2.00;;;;;;;4.57;100.00;62466.25;4936484;29;20296;-76
2022/12/04 04:44:12;;;;;;;1.60;1.50;;;;;;;4.62;100.00;62476.94;4945819;29;20228;-78
2022/12/04 04:46:47;;;;;;;1.92;1.83;;;;;;;4.58;100.00;62470.31;4944549;29;20220;-78
2022/12/04 04:49:16;;;;;;;2.55;2.38;;;;;;;4.67;100.00;62482.13;4938654;29;20200;-76
2022/12/04 04:51:45;;;;;;;2.28;2.08;;;;;;;4.60;100.00;62474.91;4947480;29;20224;-77
2022/12/04 04:54:14;;;;;;;2.22;2.13;;;;;;;4.63;100.00;62474.94;4948416;28;20228;-77
2022/12/04 04:56:43;;;;;;;2.15;2.03;;;;;;;4.62;100.00;62476.94;4947326;29;20231;-78
2022/12/04 04:59:10;;;;;;;1.88;1.77;;;;;;;4.69;100.00;62486.19;4947534;29;20237;-80
2022/12/04 05:01:39;;;;;;;2.22;2.13;;;;;;;4.66;100.00;62480.56;4947292;29;20277;-78
2022/12/04 05:04:08;;;;;;;1.92;1.83;;;;;;;4.62;100.00;62474.44;4946105;29;20471;-77
2022/12/04 05:06:35;;;;;;;2.38;2.28;;;;;;;4.58;100.00;62467.81;4949089;28;20227;-79
2022/12/04 05:09:02;;;;;;;2.20;2.00;;;;;;;4.57;100.00;62464.25;4949624;29;20205;-79
2022/12/04 05:11:29;;;;;;;2.35;2.15;;;;;;;4.64;100.00;62473.47;4947359;29;20256;-77
2022/12/04 05:13:56;;;;;;;2.58;2.22;;;;;;;4.59;100.00;62476.38;4947207;29;20372;-78
2022/12/04 05:16:23;;;;;;;2.33;2.13;;;;;;;4.60;100.00;62477.44;4948238;28;20240;-79
2022/12/04 05:21:36;;;;;;;2.50;2.40;;;;;;;4.60;100.00;62474.38;4935028;29;20236;-78
2022/12/04 05:24:03;;;;;;;2.28;2.17;;;;;;;4.62;100.00;62476.94;4947026;29;20253;-76
2022/12/04 05:26:30;;;;;;;2.13;2.03;;;;;;;4.64;100.00;62476.00;4947885;29;20225;-78
2022/12/04 05:28:57;;;;;;;3.00;2.80;;;;;;;4.56;100.00;62468.25;4944225;29;20248;-77
2022/12/04 05:31:24;;;;;;;2.65;2.45;;;;;;;4.58;100.00;62472.31;4939925;29;20436;-78
2022/12/04 05:33:50;;;;;;;2.80;2.60;;;;;;;4.54;100.00;62465.69;4946580;29;20241;-77
2022/12/04 05:36:17;;;;;;;2.38;2.17;;;;;;;4.60;100.00;62476.91;4946729;29;20576;-77
2022/12/04 05:38:46;;;;;;;2.35;2.22;;;;;;;4.61;100.00;62472.88;4948105;29;20232;-78
2022/12/04 05:41:13;;;;;;;2.17;2.08;;;;;;;4.55;100.00;62471.75;4946722;28;20273;-80
2022/12/04 05:43:40;;;;;;;2.20;2.10;;;;;;;4.58;100.00;62475.38;4946191;28;20201;-79
2022/12/04 05:46:09;;;;;;;2.60;2.42;;;;;;;4.56;100.00;62465.75;4947356;29;20384;-78
2022/12/04 05:48:36;;;;;;;2.67;2.47;;;;;;;4.64;100.00;62478.50;4949314;29;20269;-77
2022/12/04 05:51:06;;;;;;;2.58;2.38;;;;;;;4.65;100.00;62474.50;4952374;29;20232;-78
2022/12/04 05:53:33;;;;;;;2.67;2.47;;;;;;;4.65;100.00;62477.53;4951835;29;20264;-78
2022/12/04 05:56:03;;;;;;;2.08;1.98;;;;;;;4.65;100.00;62477.00;4948727;29;20225;-78
2022/12/04 05:58:30;;;;;;;2.10;2.00;;;;;;;4.67;100.00;62479.06;4949657;29;20240;-78
2022/12/04 06:00:57;;;;;;;2.17;2.08;;;;;;;4.72;100.00;62486.75;4952044;29;20213;-80
2022/12/04 06:03:25;;;;;;;2.67;2.47;;;;;;;4.72;100.00;62482.22;4951427;29;20213;-79
2022/12/04 06:05:52;;;;;;;3.08;2.85;;;;;;;4.77;100.00;62489.34;4952730;29;20293;-79
2022/12/04 06:08:19;;;;;;;3.17;2.97;;;;;;;4.80;100.00;62492.44;4951547;29;20248;-79
2022/12/04 06:10:46;;;;;;;3.05;2.78;;;;;;;4.81;100.00;62490.44;4952263;29;20225;-81
2022/12/04 06:13:14;;;;;;;2.40;2.30;;;;;;;4.84;100.00;62501.09;4952072;29;20232;-79
2022/12/04 06:15:42;;;;;;;3.45;3.00;;;;;;;4.81;100.00;62493.47;4951314;29;20221;-78
2022/12/04 06:18:09;;;;;;;3.05;2.78;;;;;;;4.85;100.00;62497.59;4950737;28;20237;-78
2022/12/04 06:20:36;;;;;;;5.15;3.70;;;;;;;4.88;100.00;62500.69;4949992;29;20229;-77
2022/12/04 06:23:03;;;;;;;3.38;3.17;;;;;;;5.00;100.00;62513.06;4948452;29;20212;-78
2022/12/04 06:25:30;;;;;;;4.20;3.28;;;;;;;5.14;100.00;62522.41;4949091;29;20232;-78
2022/12/04 06:27:57;;;;;;;4.45;4.03;;;;;;;5.18;100.00;62531.56;4948441;29;20280;-77
2022/12/04 06:30:26;;;;;;;7.13;5.80;;;;;;;5.25;100.00;62536.25;4949018;29;20217;-78
2022/12/04 06:32:53;;;;;;;4.97;4.45;;;;;;;5.28;100.00;62536.31;4943165;29;20206;-79
2022/12/04 06:35:20;;;;;;;3.15;2.95;;;;;;;5.34;100.00;62547.53;4942487;29;20237;-79
2022/12/04 06:37:47;;;;;;;3.30;3.10;;;;;;;5.42;100.00;62558.81;4948097;29;20210;-78
2022/12/04 06:40:14;;;;;;;5.45;3.80;;;;;;;5.49;100.00;62566.03;4946087;29;20213;-76
2022/12/04 06:42:41;;;;;;;6.07;5.40;;;;;;;5.57;100.00;62569.22;4948563;29;20380;-77
2022/12/04 06:45:09;;;;;;;5.07;4.68;;;;;;;5.63;100.00;62582.47;4953031;29;20216;-78
2022/12/04 06:47:38;;;;;;;4.03;3.65;;;;;;;5.76;100.00;62596.38;4949777;28;20207;-77
2022/12/04 06:50:06;;;;;;;3.88;3.60;;;;;;;5.83;100.00;62595.53;4949274;29;20717;-77
2022/12/04 06:52:34;;;;;;;3.78;3.25;;;;;;;5.88;100.00;62606.22;4932824;29;20441;-79
2022/12/04 06:55:01;;;;;;;4.63;4.22;;;;;;;5.97;100.00;62611.97;4932834;29;20534;-79
2022/12/04 06:57:28;;;;;;;5.47;4.97;;;;;;;6.03;100.00;62621.19;4949331;29;20209;-78
2022/12/04 06:59:55;;;;;;;10.85;7.28;;;;;;;6.02;100.00;62619.63;4952618;28;20241;-78
2022/12/04 07:02:22;;;;;;;11.50;8.23;;;;;;;5.90;100.00;62602.75;4951893;28;20215;-78
2022/12/04 07:04:55;;;;;;;10.35;8.60;;;;;;;6.19;100.00;62634.63;4950783;28;20222;-78
2022/12/04 07:07:22;;;;;;;10.40;8.55;;;;;;;6.17;100.00;62637.63;4948636;29;20209;-79
2022/12/04 07:09:49;;;;;;;8.65;5.97;;;;;;;6.27;100.00;62637.81;4955526;29;20232;-80
2022/12/04 07:12:16;;;;;;;5.55;4.90;;;;;;;6.31;100.00;62647.00;4950139;28;20316;-77
2022/12/04 07:14:43;;;;;;;4.47;3.92;;;;;;;6.30;100.00;62645.97;4948571;29;20201;-78
2022/12/04 07:17:10;;;;;;;3.58;3.38;;;;;;;6.32;100.00;62648.03;4946447;29;20225;-78
2022/12/04 07:19:38;;;;;;;3.75;3.28;;;;;;;6.45;100.00;62664.50;4946895;29;20240;-79
2022/12/04 07:22:07;;;;;;;4.72;4.30;;;;;;;6.54;100.00;62671.22;4949376;29;20244;-77
2022/12/04 07:24:35;;;;;;;4.75;4.22;;;;;;;6.60;100.00;62677.44;4948089;28;20205;-78
2022/12/04 07:27:02;;;;;;;4.50;4.10;;;;;;;6.68;100.00;62685.16;4953785;29;20221;-78
2022/12/04 07:29:29;;;;;;;5.20;4.30;;;;;;;6.67;100.00;62679.59;4952626;28;20413;-80
2022/12/04 07:31:56;;;;;;;5.05;4.32;;;;;;;6.74;100.00;62688.81;4950993;29;20253;-79
2022/12/04 07:34:25;;;;;;;4.32;3.92;;;;;;;6.83;100.00;62696.06;4949660;29;20216;-79
2022/12/04 07:36:52;;;;;;;4.25;3.88;;;;;;;6.89;100.00;62711.88;4953497;29;20225;-80
2022/12/04 07:39:23;;;;;;;4.53;3.70;;;;;;;6.87;100.00;62707.28;4953709;28;20240;-77
2022/12/04 07:41:50;;;;;;;3.72;3.25;;;;;;;7.07;100.00;62725.91;4955388;29;20229;-78
2022/12/04 07:44:16;;;;;;;4.40;3.90;;;;;;;7.18;100.00;62736.72;4949446;29;20273;-78
2022/12/04 07:46:44;;;;;;;4.05;3.67;;;;;;;7.33;100.00;62752.22;4948203;29;20221;-78
2022/12/04 07:49:13;;;;;;;5.47;4.97;;;;;;;7.26;100.00;62742.47;4948194;29;20500;-79
2022/12/04 07:51:39;;;;;;;6.35;5.05;;;;;;;7.39;100.00;62755.34;4947292;29;20224;-79
2022/12/04 07:54:07;;;;;;;4.85;4.35;;;;;;;7.51;100.00;62772.81;4947338;29;20201;-78
2022/12/04 07:56:36;;;;;;;6.00;5.40;;;;;;;7.68;100.00;62787.84;4947550;29;20227;-77
2022/12/04 07:59:03;;;;;;;4.07;3.78;;;;;;;7.63;100.00;62783.19;4928887;29;20538;-78
2022/12/04 08:01:31;;;;;;;4.97;4.50;;;;;;;7.78;100.00;62798.66;4947800;29;20289;-76
2022/12/04 08:04:00;;;;;;;5.13;4.28;;;;;;;7.81;100.00;62798.72;4947984;28;20209;-77
2022/12/04 08:06:29;;;;;;;9.27;4.57;;;;;;;8.08;100.00;62829.63;4948275;29;20229;-77
2022/12/04 08:08:57;;;;;;;8.43;6.07;;;;;;;8.17;100.00;62838.94;4949193;28;20197;-78
2022/12/04 08:11:28;;;;;;;4.43;4.00;;;;;;;8.08;100.00;62832.16;4949767;29;20245;-80
2022/12/04 08:14:02;;;;;;;3.42;3.15;;;;;;;8.18;100.00;62839.44;4950114;28;20202;-78
2022/12/04 08:16:31;;;;;;;3.25;2.97;;;;;;;8.34;100.00;62856.00;4949196;29;20231;-79
2022/12/04 08:18:58;;;;;;;3.47;2.83;;;;;;;8.45;100.00;62866.84;4948639;29;20407;-77
2022/12/04 08:21:29;;;;;;;2.95;2.83;;;;;;;8.44;100.00;62865.81;4948806;29;20228;-81
2022/12/04 08:24:00;;;;;;;3.55;3.28;;;;;;;8.66;100.00;62891.56;4949531;28;20399;-82
2022/12/04 08:26:29;;;;;;;3.30;3.10;;;;;;;8.83;100.00;62904.09;4948891;29;20248;-80
2022/12/04 08:29:00;;;;;;;3.35;3.13;;;;;;;9.02;100.00;62928.81;4931139;29;20225;-77
2022/12/04 08:31:29;;;;;;;2.60;2.40;;;;;;;9.09;99.08;62932.97;4928913;29;20439;-77
2022/12/04 08:33:58;;;;;;;2.92;2.72;;;;;;;8.96;100.00;62917.00;4939989;29;20370;-78
2022/12/04 08:36:25;;;;;;;4.30;3.05;;;;;;;9.07;98.69;62928.38;4950374;29;20305;-78
2022/12/04 08:38:53;;;;;;;3.70;3.40;;;;;;;8.92;99.53;62917.94;4948594;29;20240;-77
2022/12/04 08:41:22;;;;;;;3.38;3.17;;;;;;;9.09;100.00;62938.56;4948533;28;20221;-78
2022/12/04 08:43:49;;;;;;;3.17;2.97;;;;;;;9.21;98.99;62945.38;4948450;29;20213;-78
2022/12/04 08:46:18;;;;;;;3.03;2.83;;;;;;;9.36;98.75;62963.41;4947829;29;20269;-78
2022/12/04 08:48:46;;;;;;;2.38;2.28;;;;;;;9.66;98.50;62991.38;4948106;29;20197;-79
2022/12/04 08:51:15;;;;;;;2.58;2.38;;;;;;;9.43;95.07;62965.06;4947746;28;20229;-79
2022/12/04 08:53:43;;;;;;;2.88;2.67;;;;;;;9.36;96.64;62955.78;4947719;29;20233;-79
2022/12/04 08:56:14;;;;;;;2.28;2.17;;;;;;;9.46;96.61;62970.72;4948228;29;20228;-77
2022/12/04 08:58:40;;;;;;;1.85;1.75;;;;;;;9.41;97.16;62965.53;4948596;29;20648;-78
2022/12/04 09:01:10;;;;;;;2.80;2.60;;;;;;;9.44;96.69;62971.19;4948335;29;20232;-79
2022/12/04 09:03:39;;;;;;;2.30;2.05;;;;;;;9.70;96.49;62992.97;4949045;29;20244;-80
2022/12/04 09:06:07;;;;;;;2.50;2.38;;;;;;;9.80;96.42;63006.38;4948257;29;20222;-79
2022/12/04 09:08:34;;;;;;;3.85;2.17;;;;;;;9.67;92.68;62995.47;4949197;28;20209;-78
2022/12/04 09:11:24;;;;;;;2.38;1.80;;;;;;;9.64;92.32;62987.28;4948364;29;20221;-78
2022/12/04 09:13:52;;;;;;;2.03;1.92;;;;;;;9.30;92.35;62957.72;4951154;28;20563;-77
2022/12/04 09:16:21;;;;;;;2.38;2.28;;;;;;;9.48;93.99;62970.22;4947527;29;20232;-78
2022/12/04 09:18:50;;;;;;;2.83;2.63;;;;;;;9.52;93.36;62976.91;4948592;29;20232;-80
2022/12/04 09:21:18;;;;;;;3.50;3.20;;;;;;;9.57;93.44;62982.59;4947994;29;20221;-79
2022/12/04 09:23:46;;;;;;;3.78;3.55;;;;;;;9.77;93.91;63002.75;4952977;29;20241;-78
2022/12/04 09:26:20;;;;;;;5.82;5.22;;;;;;;9.66;93.20;62991.38;4951404;29;20387;-79
2022/12/04 09:28:48;;;;;;;3.72;3.42;;;;;;;9.57;94.45;62987.16;4952743;28;20205;-78
2022/12/04 09:31:15;;;;;;;2.78;2.58;;;;;;;9.21;95.33;62947.91;4951826;28;20229;-78
2022/12/04 09:33:42;;;;;;;2.95;2.70;;;;;;;9.35;97.15;62962.91;4954077;29;20201;-78
2022/12/04 09:36:14;;;;;;;3.22;3.03;;;;;;;9.10;96.97;62934.00;4952279;28;20243;-77
2022/12/04 09:38:43;;;;;;;2.95;2.67;;;;;;;9.26;97.83;62951.06;4951834;28;20216;-80
2022/12/04 09:41:40;;;;;;;4.18;3.78;;;;;;;9.31;98.22;62953.69;4955123;29;20220;-79
2022/12/04 09:44:11;;;;;;;4.05;3.65;;;;;;;9.45;96.39;62969.66;4945492;29;20205;-79
2022/12/04 09:46:44;;;;;;;2.60;2.40;;;;;;;9.25;96.25;62949.50;4951571;29;20241;-79
2022/12/04 09:49:16;;;;;;;4.38;3.78;;;;;;;9.35;96.39;62962.41;4952281;29;20236;-80
2022/12/04 09:51:47;;;;;;;3.80;3.22;;;;;;;9.12;97.26;62938.59;4952926;29;20225;-82
2022/12/04 09:54:17;;;;;;;3.65;3.45;;;;;;;9.06;97.65;62932.41;4954933;29;20241;-80
2022/12/04 09:56:50;;;;;;;2.83;2.63;;;;;;;9.10;97.86;62931.97;4953839;28;20222;-79
2022/12/04 09:59:25;;;;;;;2.97;2.78;;;;;;;9.22;98.21;62952.00;4953109;29;20468;-79
2022/12/04 10:01:59;;;;;;;2.88;2.67;;;;;;;9.18;97.93;62937.69;4953764;29;20224;-79
2022/12/04 10:04:26;;;;;;;2.72;2.53;;;;;;;9.07;98.17;62928.38;4955447;29;20193;-80
2022/12/04 10:07:05;;;;;;;4.00;3.05;;;;;;;8.97;99.00;62920.56;4957346;29;20221;-82
2022/12/04 10:09:38;;;;;;;3.35;2.97;;;;;;;8.69;100.00;62886.56;4951535;29;20240;-79
2022/12/04 10:12:17;;;;;;;3.53;3.20;;;;;;;8.94;100.00;62917.47;4955140;29;20240;-80
2022/12/04 10:14:57;;;;;;;4.57;3.50;;;;;;;9.10;100.00;62934.53;4955288;29;20208;-82
2022/12/04 10:17:37;;;;;;;3.28;3.08;;;;;;;9.14;100.00;62938.13;4955627;29;20201;-80
2022/12/04 10:20:17;;;;;;;2.88;2.67;;;;;;;8.94;100.00;62917.47;4949024;29;20221;-81
2022/12/04 10:22:56;;;;;;;7.60;5.63;;;;;;;8.96;100.00;62919.53;4949825;29;20205;-81
2022/12/04 10:25:26;;;;;;;6.72;5.18;;;;;;;8.95;100.00;62916.47;4955812;28;20248;-83
2022/12/04 10:27:58;;;;;;;5.35;4.15;;;;;;;8.90;100.00;62913.34;4953034;29;20201;-80
2022/12/04 10:30:27;;;;;;;3.55;3.25;;;;;;;9.18;100.00;62945.31;4947900;29;20248;-80
2022/12/04 10:32:59;;;;;;;3.58;3.30;;;;;;;8.93;100.00;62916.94;4954398;29;20249;-82
2022/12/04 10:35:29;;;;;;;4.28;3.88;;;;;;;8.90;100.00;62910.78;4955022;29;20225;-82
2022/12/04 10:38:03;;;;;;;4.00;3.58;;;;;;;8.62;100.00;62881.84;4952011;29;20325;-80
2022/12/04 10:40:36;;;;;;;3.63;3.33;;;;;;;8.73;100.00;62893.72;4955039;29;20237;-82
2022/12/04 10:43:13;;;;;;;3.65;3.35;;;;;;;8.46;100.00;62867.88;4957428;29;20209;-82
2022/12/04 10:45:40;;;;;;;4.20;3.80;;;;;;;8.24;100.00;62842.59;4955031;29;20224;-82
2022/12/04 10:48:14;;;;;;;4.35;3.95;;;;;;;8.37;100.00;62863.66;4942201;28;20269;-81
2022/12/04 10:50:41;;;;;;;5.22;3.97;;;;;;;8.34;100.00;62858.00;4941599;29;20229;-80
2022/12/04 10:53:13;;;;;;;3.83;3.38;;;;;;;8.24;100.00;62848.19;4954790;29;20213;-83
2022/12/04 10:55:40;;;;;;;4.18;3.70;;;;;;;8.47;100.00;62871.44;4955188;29;20221;-83
2022/12/04 10:58:16;;;;;;;4.45;3.63;;;;;;;8.12;100.00;62833.25;4954041;28;20225;-84
2022/12/04 11:00:45;;;;;;;4.47;4.07;;;;;;;8.36;100.00;62860.06;4953642;29;20233;-80
2022/12/04 11:03:25;;;;;;;4.07;3.70;;;;;;;8.29;100.00;62847.78;4953367;29;20386;-81
2022/12/04 11:05:55;;;;;;;4.18;3.78;;;;;;;8.19;100.00;62840.47;4952226;29;20252;-82
2022/12/04 11:08:30;;;;;;;4.05;3.75;;;;;;;8.27;100.00;62851.28;4955500;28;20208;-82
2022/12/04 11:11:00;;;;;;;4.03;3.72;;;;;;;8.24;100.00;62847.69;4952544;28;20235;-82
2022/12/04 11:13:27;;;;;;;5.50;4.85;;;;;;;8.40;100.00;62866.75;4958118;28;20214;-82
2022/12/04 11:15:57;;;;;;;3.95;3.63;;;;;;;8.38;100.00;62860.13;4955427;28;20443;-80
2022/12/04 11:18:26;;;;;;;4.75;3.88;;;;;;;8.33;100.00;62856.97;4954279;29;20264;-81
2022/12/04 11:20:56;;;;;;;4.47;4.07;;;;;;;8.30;100.00;62849.31;4946391;29;20541;-84
2022/12/04 11:23:26;;;;;;;4.70;4.30;;;;;;;8.34;100.00;62853.44;4953871;29;20190;-82
2022/12/04 11:25:56;;;;;;;4.53;4.13;;;;;;;8.35;100.00;62856.50;4949806;29;20542;-81
2022/12/04 11:28:27;;;;;;;5.93;4.03;;;;;;;8.32;100.00;62850.88;4953898;29;20265;-81
2022/12/04 11:30:56;;;;;;;5.43;4.93;;;;;;;8.03;100.00;62821.41;4953684;29;20221;-81
2022/12/04 11:33:29;;;;;;;7.07;5.57;;;;;;;8.28;100.00;62851.81;4934697;29;20254;-77
2022/12/04 11:36:01;;;;;;;7.88;6.95;;;;;;;8.21;100.00;62845.59;4932503;29;20222;-78
2022/12/04 11:38:34;;;;;;;6.55;4.85;;;;;;;8.29;100.00;62855.91;4957692;29;20215;-78
2022/12/04 11:41:05;;;;;;;5.15;4.70;;;;;;;8.30;100.00;62851.34;4950224;29;20274;-78
2022/12/04 11:43:33;;;;;;;6.50;5.35;;;;;;;8.10;100.00;62829.16;4950959;29;20205;-79
2022/12/04 11:46:01;;;;;;;5.63;5.13;;;;;;;8.07;100.00;62823.53;4949890;28;20222;-81
2022/12/04 11:48:31;;;;;;;5.32;4.93;;;;;;;8.26;100.00;62849.75;4950539;28;20209;-79
2022/12/04 11:51:10;;;;;;;5.85;4.93;;;;;;;8.11;100.00;62835.25;4949506;29;20225;-80
2022/12/04 11:53:49;;;;;;;6.07;5.45;;;;;;;8.05;100.00;62821.47;4938335;29;20197;-79
2022/12/04 11:56:25;;;;;;;4.82;4.43;;;;;;;8.30;100.00;62853.88;4956279;28;20254;-82
2022/12/04 11:59:17;;;;;;;4.85;4.43;;;;;;;8.18;100.00;62839.97;4959600;29;20279;-79
2022/12/04 12:01:50;;;;;;;5.05;4.55;;;;;;;8.38;100.00;62859.59;4959335;28;20245;-81